Time;durP1;ratioP1;P1;durP2;ratioP2;P2;SDS_P1;SDS_P2;PMS_P1;PMS_P2;Temp;Humidity;BMP_temperature;BMP_pressure;BME280_temperature;BME280_humidity;BME280_pressure;Samples;Min_cycle;Max_cycle;Signal;HPM_P1;HPM_P2
2022/01/07 00:01:23;;;;;;;10.85;4.35;;;;;;;-0.06;58.60;100349.91;5023107;28;20480;-65
2022/01/07 00:03:51;;;;;;;11.57;5.80;;;;;;;-0.09;58.46;100352.59;5023132;28;20046;-69
2022/01/07 00:06:18;;;;;;;12.93;4.32;;;;;;;-0.08;58.45;100359.50;5023226;28;20050;-64
2022/01/07 00:08:45;;;;;;;9.38;5.75;;;;;;;-0.09;58.45;100360.38;5023313;28;20651;-68
2022/01/07 00:11:12;;;;;;;11.20;4.20;;;;;;;-0.11;58.58;100357.84;5026775;28;20053;-65
2022/01/07 00:13:39;;;;;;;11.18;4.30;;;;;;;-0.13;58.43;100357.00;5026660;28;20104;-65
2022/01/07 00:16:07;;;;;;;10.60;4.53;;;;;;;-0.14;58.38;100363.13;5027206;28;20060;-65
2022/01/07 00:18:35;;;;;;;9.80;4.57;;;;;;;-0.15;58.54;100371.78;5026258;28;20536;-64
2022/01/07 00:21:02;;;;;;;12.50;4.55;;;;;;;-0.17;58.47;100368.38;5026547;28;20409;-68
2022/01/07 00:23:30;;;;;;;9.88;4.38;;;;;;;-0.18;58.68;100368.41;5026649;28;20046;-69
2022/01/07 00:25:57;;;;;;;8.88;4.18;;;;;;;-0.21;58.79;100375.41;5025390;28;20049;-70
2022/01/07 00:28:24;;;;;;;12.82;5.20;;;;;;;-0.23;58.51;100361.63;5026778;28;20072;-67
2022/01/07 00:30:51;;;;;;;11.40;4.10;;;;;;;-0.25;58.39;100363.41;5026333;28;20782;-66
2022/01/07 00:33:19;;;;;;;7.57;4.07;;;;;;;-0.26;58.90;100356.50;5026446;28;20045;-71
2022/01/07 00:35:48;;;;;;;7.30;4.22;;;;;;;-0.26;58.78;100351.31;5026648;28;20604;-72
2022/01/07 00:38:15;;;;;;;9.38;4.28;;;;;;;-0.30;58.67;100352.28;5026367;28;20071;-66
2022/01/07 00:40:42;;;;;;;11.98;4.38;;;;;;;-0.31;58.49;100353.16;5026184;28;20365;-64
2022/01/07 00:43:09;;;;;;;14.65;5.43;;;;;;;-0.34;58.58;100355.84;5026860;28;20045;-70
2022/01/07 00:45:36;;;;;;;10.95;3.78;;;;;;;-0.37;58.71;100355.94;5025990;28;20095;-66
2022/01/07 00:48:03;;;;;;;13.40;5.25;;;;;;;-0.33;58.79;100365.34;5026497;28;20076;-72
2022/01/07 00:50:31;;;;;;;14.05;5.00;;;;;;;-0.36;58.58;100368.03;5026397;28;20083;-68
2022/01/07 00:53:00;;;;;;;15.98;5.80;;;;;;;-0.36;58.67;100369.75;5025669;28;20402;-67
2022/01/07 00:55:28;;;;;;;18.45;6.22;;;;;;;-0.40;58.87;100375.03;5024556;28;20068;-65
2022/01/07 00:57:55;;;;;;;15.32;6.28;;;;;;;-0.42;58.82;100369.00;5026472;28;20046;-67
2022/01/07 01:00:25;;;;;;;13.75;5.57;;;;;;;-0.45;58.76;100363.91;5026232;28;20065;-70
2022/01/07 01:02:52;;;;;;;12.55;4.78;;;;;;;-0.46;58.60;100369.13;5026828;28;20449;-65
2022/01/07 01:05:20;;;;;;;11.57;5.50;;;;;;;-0.49;58.72;100367.47;5026636;28;20050;-69
2022/01/07 01:07:47;;;;;;;16.65;6.60;;;;;;;-0.51;58.73;100365.81;5026209;28;20076;-72
2022/01/07 01:10:20;;;;;;;14.15;6.28;;;;;;;-0.52;58.92;100371.88;5026301;28;20055;-64
2022/01/07 01:12:48;;;;;;;14.15;5.85;;;;;;;-0.54;58.85;100369.34;5027206;28;20055;-71
2022/01/07 01:15:20;;;;;;;15.00;5.95;;;;;;;-0.54;58.64;100369.34;5027393;28;20042;-66
2022/01/07 01:17:47;;;;;;;11.80;5.55;;;;;;;-0.56;58.90;100371.09;5025982;28;20497;-65
2022/01/07 01:20:15;;;;;;;11.00;4.90;;;;;;;-0.57;58.99;100372.00;5025998;28;20049;-65
2022/01/07 01:22:42;;;;;;;12.65;4.82;;;;;;;-0.55;58.86;100369.38;5027072;28;20053;-68
2022/01/07 01:25:09;;;;;;;13.27;4.70;;;;;;;-0.56;58.81;100368.50;5026190;28;20049;-65
2022/01/07 01:27:39;;;;;;;13.27;5.85;;;;;;;-0.56;58.95;100376.28;5026548;28;20053;-64
2022/01/07 01:30:10;;;;;;;10.75;4.35;;;;;;;-0.54;59.07;100373.66;5025051;28;20049;-70
2022/01/07 01:32:37;;;;;;;8.82;3.97;;;;;;;-0.55;58.66;100367.63;5025719;28;20050;-65
2022/01/07 01:35:06;;;;;;;7.20;3.60;;;;;;;-0.56;58.62;100373.69;5024943;28;20041;-65
2022/01/07 01:37:36;;;;;;;10.38;5.13;;;;;;;-0.57;58.67;100376.34;5025547;28;20049;-64
2022/01/07 01:40:04;;;;;;;11.57;4.95;;;;;;;-0.55;58.88;100379.75;5025361;28;20140;-65
2022/01/07 01:42:31;;;;;;;10.82;4.63;;;;;;;-0.57;58.59;100376.34;5024980;28;20044;-64
2022/01/07 01:44:59;;;;;;;8.88;4.75;;;;;;;-0.55;58.90;100377.16;5025743;28;20051;-63
2022/01/07 01:47:26;;;;;;;15.25;5.28;;;;;;;-0.56;58.93;100376.28;5024733;28;20704;-65
2022/01/07 01:49:53;;;;;;;7.97;3.25;;;;;;;-0.57;58.90;100374.59;5024273;28;20063;-64
2022/01/07 01:52:20;;;;;;;11.30;4.20;;;;;;;-0.54;58.88;100377.13;5026067;28;20049;-64
2022/01/07 01:54:47;;;;;;;15.07;5.50;;;;;;;-0.55;58.78;100377.16;5023165;28;20056;-64
2022/01/07 01:57:15;;;;;;;8.20;3.25;;;;;;;-0.55;58.74;100378.00;5025002;28;20052;-65
2022/01/07 01:59:43;;;;;;;16.83;5.90;;;;;;;-0.55;59.09;100379.75;5025558;28;20064;-64
2022/01/07 02:02:11;;;;;;;14.60;5.72;;;;;;;-0.60;58.95;100383.28;5024458;28;20574;-67
2022/01/07 02:04:40;;;;;;;14.55;6.93;;;;;;;-0.58;59.06;100383.25;5025478;28;20466;-65
2022/01/07 02:07:08;;;;;;;13.43;5.35;;;;;;;-0.56;58.86;100386.66;5026425;28;20045;-64
2022/01/07 02:09:36;;;;;;;17.58;6.53;;;;;;;-0.57;58.95;100382.38;5025643;28;20282;-66
2022/01/07 02:12:04;;;;;;;13.70;7.13;;;;;;;-0.57;58.78;100384.97;5026075;28;20147;-70
2022/01/07 02:14:31;;;;;;;11.02;6.35;;;;;;;-0.57;58.71;100382.38;5025436;28;20050;-72
2022/01/07 02:17:05;;;;;;;14.15;7.13;;;;;;;-0.59;58.76;100385.00;5025839;28;20057;-65
2022/01/07 02:19:34;;;;;;;13.57;5.57;;;;;;;-0.59;58.79;100390.19;5025731;28;20069;-65
2022/01/07 02:22:01;;;;;;;10.70;6.40;;;;;;;-0.59;59.13;100394.53;5026357;28;20050;-67
2022/01/07 02:24:28;;;;;;;14.07;6.65;;;;;;;-0.61;58.93;100386.78;5023556;28;20060;-70
2022/01/07 02:26:56;;;;;;;14.00;5.82;;;;;;;-0.61;59.03;100386.78;5026513;28;20045;-67
2022/01/07 02:29:23;;;;;;;20.58;8.90;;;;;;;-0.61;58.82;100379.00;5026402;28;20148;-69
2022/01/07 02:31:51;;;;;;;16.48;6.63;;;;;;;-0.61;58.82;100385.94;5026072;28;20089;-66
2022/01/07 02:34:18;;;;;;;15.90;5.72;;;;;;;-0.62;59.13;100379.88;5026151;28;20511;-67
2022/01/07 02:36:47;;;;;;;17.92;8.07;;;;;;;-0.63;58.83;100380.78;5025654;28;20045;-65
2022/01/07 02:39:13;;;;;;;10.48;5.20;;;;;;;-0.64;59.19;100379.06;5026134;28;20057;-67
2022/01/07 02:41:40;;;;;;;17.33;7.95;;;;;;;-0.67;58.72;100376.53;5028118;28;20049;-69
2022/01/07 02:44:07;;;;;;;14.93;6.07;;;;;;;-0.68;59.14;100380.03;5026280;28;20109;-64
2022/01/07 02:46:34;;;;;;;15.88;7.05;;;;;;;-0.69;59.17;100383.50;5025995;28;20045;-65
2022/01/07 02:49:09;;;;;;;15.07;7.45;;;;;;;-0.69;59.04;100386.09;5026623;28;20055;-70
2022/01/07 02:51:35;;;;;;;14.43;5.53;;;;;;;-0.69;58.88;100390.44;5026551;28;20049;-70
2022/01/07 02:54:07;;;;;;;17.20;7.35;;;;;;;-0.71;59.04;100390.50;5025248;28;20050;-64
2022/01/07 02:56:34;;;;;;;11.50;5.45;;;;;;;-0.74;59.05;100393.16;5026401;28;20049;-67
2022/01/07 02:59:01;;;;;;;15.43;5.30;;;;;;;-0.75;59.05;100393.22;5026020;28;20133;-73
2022/01/07 03:01:28;;;;;;;13.00;4.07;;;;;;;-0.79;58.92;100387.25;5026620;28;20053;-66
2022/01/07 03:03:55;;;;;;;14.55;5.40;;;;;;;-0.80;59.26;100382.94;5027092;28;20056;-67
2022/01/07 03:06:23;;;;;;;14.63;6.90;;;;;;;-0.81;59.08;100381.22;5026132;28;20051;-71
2022/01/07 03:08:51;;;;;;;14.32;5.22;;;;;;;-0.81;59.04;100386.41;5025824;28;20045;-64
2022/01/07 03:11:22;;;;;;;11.10;6.07;;;;;;;-0.83;59.19;100385.59;5024856;28;20060;-65
2022/01/07 03:13:50;;;;;;;9.65;6.10;;;;;;;-0.88;59.05;100400.38;5025289;28;20045;-66
2022/01/07 03:16:17;;;;;;;14.98;5.53;;;;;;;-0.90;59.37;100396.97;5024633;28;20051;-65
2022/01/07 03:18:44;;;;;;;17.13;7.60;;;;;;;-0.94;58.95;100401.38;5026304;28;20045;-64
2022/01/07 03:21:11;;;;;;;14.20;6.65;;;;;;;-0.95;59.27;100410.06;5027084;28;20046;-69
2022/01/07 03:23:40;;;;;;;15.82;8.15;;;;;;;-0.97;59.23;100412.69;5027323;28;20042;-72
2022/01/07 03:26:08;;;;;;;18.00;7.45;;;;;;;-0.99;59.15;100413.59;5024335;28;20060;-64
2022/01/07 03:28:39;;;;;;;13.82;9.52;;;;;;;-1.00;59.52;100407.56;5026782;28;20076;-68
2022/01/07 03:31:06;;;;;;;22.58;7.68;;;;;;;-1.03;59.10;100410.22;5027917;28;20058;-70
2022/01/07 03:33:33;;;;;;;19.52;10.80;;;;;;;-1.04;59.38;100400.75;5026940;28;20045;-67
2022/01/07 03:36:00;;;;;;;21.05;9.63;;;;;;;-1.05;59.37;100399.03;5026161;28;20049;-65
2022/01/07 03:38:27;;;;;;;20.98;10.68;;;;;;;-1.04;59.30;100402.50;5027604;28;20045;-69
2022/01/07 03:40:54;;;;;;;22.45;10.77;;;;;;;-1.06;59.36;100402.53;5025420;28;20047;-65
2022/01/07 03:43:21;;;;;;;19.73;9.25;;;;;;;-1.08;59.40;100409.50;5025453;28;20046;-63
2022/01/07 03:45:50;;;;;;;24.95;11.13;;;;;;;-1.10;59.67;100397.44;5031937;28;20045;-68
2022/01/07 03:48:17;;;;;;;25.50;9.98;;;;;;;-1.13;59.20;100405.28;5030023;28;20440;-64
2022/01/07 03:50:44;;;;;;;19.30;9.32;;;;;;;-1.13;59.50;100400.97;5028790;28;20065;-63
2022/01/07 03:53:11;;;;;;;17.83;9.20;;;;;;;-1.14;59.49;100404.44;5030281;28;20073;-63
2022/01/07 03:55:38;;;;;;;22.55;9.00;;;;;;;-1.16;59.40;100403.63;5028227;28;20045;-65
2022/01/07 03:58:05;;;;;;;21.27;11.50;;;;;;;-1.19;59.53;100388.13;5030498;28;20661;-64
2022/01/07 04:00:34;;;;;;;24.77;11.77;;;;;;;-1.20;59.62;100401.97;5030310;28;20056;-63
2022/01/07 04:03:04;;;;;;;21.17;9.82;;;;;;;-1.21;59.71;100403.69;5031019;28;20046;-64
2022/01/07 04:05:31;;;;;;;25.65;12.55;;;;;;;-1.24;59.65;100395.13;5031861;28;20050;-64
2022/01/07 04:07:58;;;;;;;25.38;9.55;;;;;;;-1.23;59.56;100404.63;5032637;28;20056;-66
2022/01/07 04:10:25;;;;;;;20.20;9.63;;;;;;;-1.25;59.54;100393.44;5030108;28;20042;-64
2022/01/07 04:12:52;;;;;;;15.02;7.55;;;;;;;-1.25;59.53;100402.06;5031459;28;20049;-64
2022/01/07 04:15:21;;;;;;;21.90;8.45;;;;;;;-1.24;59.48;100397.72;5029691;28;20045;-65
2022/01/07 04:17:50;;;;;;;17.17;8.50;;;;;;;-1.24;59.55;100395.13;5029727;28;20091;-64
2022/01/07 04:20:21;;;;;;;20.30;8.23;;;;;;;-1.22;59.52;100401.16;5030286;28;20056;-64
2022/01/07 04:22:48;;;;;;;17.23;9.93;;;;;;;-1.25;59.41;100403.81;5030284;28;20050;-61
2022/01/07 04:25:18;;;;;;;15.45;8.35;;;;;;;-1.25;59.39;100399.47;5027719;28;20045;-64
2022/01/07 04:27:46;;;;;;;19.33;8.10;;;;;;;-1.24;59.47;100395.13;5029017;28;20049;-64
2022/01/07 04:30:14;;;;;;;22.33;8.10;;;;;;;-1.25;59.49;100389.13;5029460;28;20107;-64
2022/01/07 04:32:42;;;;;;;12.43;6.88;;;;;;;-1.24;59.83;100384.78;5028944;28;20094;-63
2022/01/07 04:35:11;;;;;;;14.63;9.20;;;;;;;-1.24;59.61;100384.78;5030487;28;20125;-64
2022/01/07 04:37:40;;;;;;;17.17;7.22;;;;;;;-1.23;59.67;100376.13;5030384;28;20057;-64
2022/01/07 04:40:10;;;;;;;14.38;6.00;;;;;;;-1.21;59.48;100372.59;5027690;28;20642;-65
2022/01/07 04:42:37;;;;;;;18.80;7.18;;;;;;;-1.23;59.58;100371.78;5028819;28;20053;-63
2022/01/07 04:45:05;;;;;;;16.88;6.95;;;;;;;-1.21;59.39;100376.94;5030081;28;20048;-64
2022/01/07 04:47:35;;;;;;;16.63;6.88;;;;;;;-1.19;59.61;100375.16;5029082;28;20042;-64
2022/01/07 04:50:02;;;;;;;13.30;6.78;;;;;;;-1.20;59.75;100378.66;5028440;28;20139;-64
2022/01/07 04:52:29;;;;;;;13.70;7.13;;;;;;;-1.18;59.41;100382.06;5029493;28;20049;-63
2022/01/07 04:54:57;;;;;;;17.75;7.40;;;;;;;-1.17;59.66;100375.97;5024953;28;20049;-64
2022/01/07 04:57:24;;;;;;;19.65;7.43;;;;;;;-1.15;59.41;100376.81;5028536;28;20045;-64
2022/01/07 04:59:51;;;;;;;20.70;8.45;;;;;;;-1.11;59.70;100375.00;5027699;28;20576;-63
2022/01/07 05:02:20;;;;;;;20.65;7.00;;;;;;;-1.09;59.80;100376.66;5027770;28;20045;-64
2022/01/07 05:04:47;;;;;;;15.65;8.18;;;;;;;-1.07;59.71;100371.47;5028311;28;20049;-64
2022/01/07 05:07:15;;;;;;;19.75;7.40;;;;;;;-1.02;59.82;100377.41;5028837;28;20045;-64
2022/01/07 05:09:42;;;;;;;20.23;9.10;;;;;;;-0.99;59.54;100365.22;5028940;28;20049;-65
2022/01/07 05:12:12;;;;;;;20.05;8.07;;;;;;;-0.94;59.60;100372.88;5028866;28;20124;-65
2022/01/07 05:14:39;;;;;;;25.35;9.90;;;;;;;-0.91;59.52;100371.97;5027396;28;20049;-65
2022/01/07 05:17:07;;;;;;;19.02;9.57;;;;;;;-0.89;59.94;100372.78;5031397;28;20064;-68
2022/01/07 05:19:34;;;;;;;27.10;9.88;;;;;;;-0.86;59.75;100370.13;5031877;28;20133;-68
2022/01/07 05:22:01;;;;;;;21.92;11.25;;;;;;;-0.83;59.52;100370.03;5031486;28;20057;-67
2022/01/07 05:24:28;;;;;;;21.13;9.43;;;;;;;-0.77;59.59;100373.34;5028906;28;20051;-68
2022/01/07 05:26:55;;;;;;;22.52;9.00;;;;;;;-0.66;59.60;100365.28;5032374;28;20703;-71
2022/01/07 05:29:23;;;;;;;20.60;8.75;;;;;;;-0.48;59.49;100363.13;5032101;28;20041;-71
2022/01/07 05:31:50;;;;;;;18.40;10.35;;;;;;;-0.33;58.89;100367.94;5032308;28;20116;-69
2022/01/07 05:34:17;;;;;;;15.45;8.15;;;;;;;-0.23;59.05;100364.22;5032825;28;20045;-69
2022/01/07 05:36:44;;;;;;;21.95;10.80;;;;;;;-0.16;58.75;100364.91;5035661;28;20101;-68
2022/01/07 05:39:11;;;;;;;21.17;8.00;;;;;;;-0.11;59.02;100357.84;5032525;28;20654;-68
2022/01/07 05:41:38;;;;;;;25.35;9.13;;;;;;;-0.14;58.92;100359.69;5031301;28;20059;-70
2022/01/07 05:44:06;;;;;;;21.15;9.57;;;;;;;-0.21;58.98;100351.19;5035290;28;20116;-71
2022/01/07 05:46:34;;;;;;;13.57;7.32;;;;;;;-0.26;58.85;100355.66;5036614;28;20135;-70
2022/01/07 05:49:01;;;;;;;18.65;7.05;;;;;;;-0.29;58.87;100350.53;5036697;28;20059;-71
2022/01/07 05:51:28;;;;;;;16.27;7.07;;;;;;;-0.33;59.31;100351.50;5034592;28;20128;-73
2022/01/07 05:53:55;;;;;;;19.23;6.80;;;;;;;-0.37;59.06;100353.34;5032082;28;20052;-67
2022/01/07 05:56:22;;;;;;;19.65;9.02;;;;;;;-0.39;59.14;100358.56;5030984;28;20071;-72
2022/01/07 05:58:49;;;;;;;25.85;10.18;;;;;;;-0.41;59.46;100364.69;5033631;28;20045;-70
2022/01/07 06:01:16;;;;;;;21.08;8.60;;;;;;;-0.43;59.39;100356.09;5033283;28;20046;-73
2022/01/07 06:03:44;;;;;;;22.25;8.30;;;;;;;-0.44;59.40;100367.34;5032343;28;20052;-71
2022/01/07 06:06:11;;;;;;;17.60;9.15;;;;;;;-0.46;59.09;100366.53;5035338;28;20408;-68
2022/01/07 06:08:38;;;;;;;14.40;6.75;;;;;;;-0.46;59.29;100367.38;5033923;28;20439;-69
2022/01/07 06:11:06;;;;;;;22.02;8.98;;;;;;;-0.47;59.31;100363.09;5032033;28;20049;-68
2022/01/07 06:13:33;;;;;;;15.43;6.88;;;;;;;-0.44;59.18;100360.41;5031842;28;20041;-71
2022/01/07 06:16:00;;;;;;;20.15;7.38;;;;;;;-0.46;59.43;100359.59;5032395;28;20049;-64
2022/01/07 06:18:27;;;;;;;15.48;6.32;;;;;;;-0.45;59.37;100363.03;5013945;28;20113;-70
2022/01/07 06:20:55;;;;;;;16.38;8.10;;;;;;;-0.46;59.30;100361.34;5032639;28;20076;-67
2022/01/07 06:23:22;;;;;;;15.52;7.13;;;;;;;-0.45;59.45;100363.03;5031221;28;20049;-69
2022/01/07 06:25:49;;;;;;;15.82;6.53;;;;;;;-0.46;59.61;100366.53;5030025;28;20042;-66
2022/01/07 06:28:16;;;;;;;15.35;8.20;;;;;;;-0.45;59.57;100368.22;5034826;28;20045;-71
2022/01/07 06:30:43;;;;;;;16.75;6.50;;;;;;;-0.45;59.50;100363.91;5030660;28;20049;-63
2022/01/07 06:33:11;;;;;;;20.65;7.22;;;;;;;-0.45;59.47;100363.03;5030536;28;20081;-63
2022/01/07 06:35:37;;;;;;;18.58;8.35;;;;;;;-0.45;59.69;100373.41;5032614;28;20132;-65
2022/01/07 06:38:06;;;;;;;12.77;7.47;;;;;;;-0.44;59.47;100362.16;5028662;28;20509;-67
2022/01/07 06:40:33;;;;;;;23.42;8.85;;;;;;;-0.45;59.63;100363.91;5028146;28;20140;-67
2022/01/07 06:43:01;;;;;;;24.75;9.15;;;;;;;-0.43;59.68;100366.47;5026938;28;20128;-69
2022/01/07 06:45:28;;;;;;;18.35;7.97;;;;;;;-0.43;59.40;100369.06;5027006;28;20069;-70
2022/01/07 06:47:55;;;;;;;14.52;6.35;;;;;;;-0.42;59.73;100368.16;5006624;28;20716;-72
2022/01/07 06:50:21;;;;;;;19.88;8.23;;;;;;;-0.39;59.63;100375.88;5024772;28;20055;-71
2022/01/07 06:52:48;;;;;;;22.25;8.68;;;;;;;-0.35;59.42;100368.88;5025926;28;20493;-69
2022/01/07 06:55:17;;;;;;;16.10;7.25;;;;;;;-0.33;59.43;100369.69;5023390;28;20053;-74
2022/01/07 06:57:44;;;;;;;21.30;7.72;;;;;;;-0.32;59.73;100380.03;5026991;28;20120;-69
2022/01/07 07:00:12;;;;;;;23.15;9.98;;;;;;;-0.31;59.48;100381.72;5034108;28;20048;-69
2022/01/07 07:02:39;;;;;;;20.27;8.80;;;;;;;-0.27;59.77;100379.88;5043453;28;20048;-69
2022/01/07 07:05:06;;;;;;;28.42;11.90;;;;;;;-0.24;59.60;100385.00;5024758;28;20120;-66
2022/01/07 07:07:33;;;;;;;26.30;9.95;;;;;;;-0.16;59.58;100390.00;5026401;28;20049;-65
2022/01/07 07:10:00;;;;;;;19.95;10.75;;;;;;;-0.11;59.65;100381.22;5025705;28;20045;-67
2022/01/07 07:12:29;;;;;;;27.48;11.93;;;;;;;-0.01;59.63;100382.66;5026698;28;20072;-67
2022/01/07 07:14:56;;;;;;;20.92;8.15;;;;;;;0.07;59.34;100390.22;5026734;28;20077;-64
2022/01/07 07:17:24;;;;;;;18.60;7.82;;;;;;;0.16;59.21;100389.13;5025856;28;20045;-67
2022/01/07 07:19:51;;;;;;;18.20;7.97;;;;;;;0.28;59.05;100390.56;5026681;28;20041;-66
2022/01/07 07:22:18;;;;;;;23.90;8.93;;;;;;;0.44;59.11;100386.63;5025791;28;20060;-67
2022/01/07 07:24:45;;;;;;;20.98;9.40;;;;;;;0.51;58.86;100388.16;5025479;28;20050;-65
2022/01/07 07:27:12;;;;;;;20.70;8.48;;;;;;;0.57;59.03;100392.31;5026420;28;20052;-64
2022/01/07 07:29:41;;;;;;;16.52;7.82;;;;;;;0.62;58.78;100384.41;5027902;28;20697;-65
2022/01/07 07:32:10;;;;;;;17.80;8.02;;;;;;;0.69;58.69;100385.91;5026491;28;20133;-71
2022/01/07 07:34:59;;;;;;;23.95;9.27;;;;;;;0.75;58.56;100391.78;5008393;28;20100;-67
2022/01/07 07:37:26;;;;;;;18.42;8.40;;;;;;;0.88;58.64;100388.81;5024785;28;20053;-64
2022/01/07 07:39:53;;;;;;;17.15;9.13;;;;;;;0.88;58.28;100389.69;5007110;28;20057;-70
2022/01/07 07:42:20;;;;;;;14.65;7.80;;;;;;;0.92;58.53;100386.09;5023046;28;20068;-68
2022/01/07 07:44:49;;;;;;;21.88;10.88;;;;;;;0.95;58.45;100387.72;5023474;28;20100;-65
2022/01/07 07:47:16;;;;;;;17.52;9.10;;;;;;;0.98;58.36;100387.63;5022611;28;20046;-65
2022/01/07 07:49:43;;;;;;;20.98;7.10;;;;;;;0.99;58.41;100378.94;5022171;28;20060;-63
2022/01/07 07:52:10;;;;;;;23.55;9.50;;;;;;;0.96;58.69;100376.44;5022255;28;20120;-66
2022/01/07 07:54:37;;;;;;;17.65;7.90;;;;;;;0.96;58.54;100376.44;5020832;28;20413;-67
2022/01/07 07:57:05;;;;;;;14.95;7.78;;;;;;;0.98;58.70;100372.03;5022430;28;20606;-66
2022/01/07 07:59:32;;;;;;;17.60;8.70;;;;;;;0.99;58.46;100378.06;4971801;28;20096;-70
2022/01/07 08:02:02;;;;;;;14.48;7.93;;;;;;;1.02;58.72;100380.59;5021485;28;20561;-65
2022/01/07 08:04:29;;;;;;;18.45;8.05;;;;;;;1.04;58.49;100384.84;5021541;28;20688;-64
2022/01/07 08:06:56;;;;;;;20.98;9.10;;;;;;;1.11;58.21;100382.91;5021986;28;20054;-65
2022/01/07 08:09:24;;;;;;;19.85;9.45;;;;;;;1.17;58.29;100384.47;5021642;28;20672;-63
2022/01/07 08:11:53;;;;;;;15.70;7.03;;;;;;;1.25;58.20;100391.13;5021327;28;20056;-65
2022/01/07 08:17:08;;;;;;;19.40;7.30;;;;;;;1.43;57.78;100379.28;5020948;28;20231;-67
2022/01/07 08:19:35;;;;;;;17.70;8.32;;;;;;;1.42;57.82;100376.72;5020890;28;20685;-64
2022/01/07 08:22:02;;;;;;;23.55;8.50;;;;;;;1.47;57.70;100372.22;5020619;28;20413;-64
2022/01/07 08:24:29;;;;;;;27.77;10.05;;;;;;;1.52;57.48;100375.53;5017720;28;20053;-64
2022/01/07 08:26:56;;;;;;;18.52;9.18;;;;;;;1.56;57.32;100379.72;5021480;28;20291;-64
2022/01/07 08:29:29;;;;;;;26.02;10.52;;;;;;;1.59;57.33;100382.22;5021659;28;20590;-63
2022/01/07 08:34:56;;;;;;;31.92;13.18;;;;;;;1.69;57.01;100385.34;5028922;28;20064;-67
2022/01/07 08:37:24;;;;;;;22.55;10.90;;;;;;;1.69;56.80;100385.34;5031631;28;20086;-64
2022/01/07 08:39:53;;;;;;;28.65;13.23;;;;;;;1.68;57.00;100394.09;5032876;28;20100;-70
2022/01/07 08:42:21;;;;;;;27.02;10.60;;;;;;;1.70;56.86;100387.06;5029985;28;20043;-72
2022/01/07 08:44:51;;;;;;;19.98;10.30;;;;;;;1.77;56.73;100377.31;5028230;28;20056;-69
2022/01/07 08:47:19;;;;;;;27.08;11.73;;;;;;;1.83;56.64;100395.31;5028530;28;20112;-73
2022/01/07 08:49:48;;;;;;;20.05;9.18;;;;;;;1.90;56.36;100384.63;5028823;28;20065;-65
2022/01/07 08:52:15;;;;;;;25.77;10.90;;;;;;;1.97;56.20;100389.63;5027904;28;20093;-70
2022/01/07 08:54:43;;;;;;;28.60;11.52;;;;;;;1.99;55.91;100383.47;5034443;28;20221;-69
2022/01/07 08:57:10;;;;;;;29.98;11.63;;;;;;;2.06;55.87;100387.56;5031729;28;20050;-71
2022/01/07 08:59:37;;;;;;;20.77;11.57;;;;;;;2.06;55.36;100384.09;5027737;28;20208;-73
2022/01/07 09:02:05;;;;;;;20.95;10.60;;;;;;;2.09;55.37;100384.84;5029630;28;20053;-69
2022/01/07 09:04:32;;;;;;;17.55;10.52;;;;;;;2.09;55.30;100386.63;5029885;28;20076;-67
2022/01/07 09:07:00;;;;;;;28.70;12.65;;;;;;;2.07;55.52;100381.44;5030693;28;20137;-69
2022/01/07 09:09:27;;;;;;;26.48;10.60;;;;;;;2.08;55.32;100382.28;5029673;28;20055;-67
2022/01/07 09:11:54;;;;;;;20.50;10.15;;;;;;;2.09;55.45;100377.03;5029684;28;20056;-65
2022/01/07 09:14:22;;;;;;;20.23;8.52;;;;;;;2.17;55.38;100383.72;5028530;28;20136;-66
2022/01/07 09:16:49;;;;;;;28.73;10.43;;;;;;;2.26;55.22;100375.56;5027539;28;20041;-68
2022/01/07 09:19:17;;;;;;;17.75;9.15;;;;;;;2.40;54.96;100375.91;5031193;28;20144;-69
2022/01/07 09:21:44;;;;;;;18.00;8.50;;;;;;;2.54;54.81;100369.34;4988430;28;20045;-74
2022/01/07 09:24:12;;;;;;;18.90;8.02;;;;;;;2.62;54.50;100377.72;5035811;28;20067;-70
2022/01/07 09:26:39;;;;;;;20.98;9.15;;;;;;;2.64;54.64;100362.88;5032656;28;20052;-68
2022/01/07 09:29:06;;;;;;;22.25;10.18;;;;;;;2.69;54.53;100366.16;5021815;28;20585;-69
2022/01/07 09:31:35;;;;;;;17.77;8.70;;;;;;;2.71;54.31;100356.50;5025671;28;20075;-70
2022/01/07 09:34:02;;;;;;;17.13;8.88;;;;;;;2.75;54.23;100365.06;5026765;28;20057;-70
2022/01/07 09:36:29;;;;;;;16.52;8.35;;;;;;;2.80;54.15;100366.59;5026048;28;20068;-68
2022/01/07 09:38:57;;;;;;;18.92;9.45;;;;;;;2.90;53.77;100368.84;5026285;28;20599;-66
2022/01/07 09:41:26;;;;;;;26.05;11.73;;;;;;;2.99;53.74;100376.31;5025278;28;20050;-69
2022/01/07 09:43:53;;;;;;;24.48;9.88;;;;;;;3.13;53.38;100367.94;5026054;28;20453;-68
2022/01/07 09:46:20;;;;;;;27.17;11.50;;;;;;;3.33;53.00;100377.56;5026244;28;20631;-73
2022/01/07 09:48:47;;;;;;;31.63;11.27;;;;;;;3.37;52.90;100372.19;5027149;28;20103;-73
2022/01/07 09:51:15;;;;;;;24.70;11.13;;;;;;;3.34;52.96;100366.25;5025518;28;20193;-64
2022/01/07 09:53:43;;;;;;;31.98;13.93;;;;;;;3.32;52.73;100374.13;5028173;28;20084;-68
2022/01/07 09:56:10;;;;;;;29.38;12.40;;;;;;;3.35;52.78;100363.56;5028631;28;20121;-68
2022/01/07 09:58:39;;;;;;;24.83;10.00;;;;;;;3.50;52.52;100366.47;5029739;28;20053;-72
2022/01/07 10:01:09;;;;;;;13.98;7.32;;;;;;;3.59;52.52;100361.69;5032919;28;20193;-72
2022/01/07 10:03:39;;;;;;;22.45;9.63;;;;;;;3.64;52.28;100359.75;5035638;28;20050;-69
2022/01/07 10:06:17;;;;;;;24.80;9.88;;;;;;;3.73;52.03;100357.66;5032053;28;20721;-66
2022/01/07 10:08:46;;;;;;;23.63;9.02;;;;;;;3.87;51.90;100347.47;5034244;28;20152;-71
2022/01/07 10:11:16;;;;;;;20.58;10.15;;;;;;;3.90;51.75;100343.88;5031213;28;20046;-69
2022/01/07 10:13:49;;;;;;;19.33;8.73;;;;;;;3.95;51.79;100341.91;5033142;28;20037;-71
2022/01/07 10:16:19;;;;;;;13.43;7.30;;;;;;;4.04;51.60;100340.66;5034184;28;20124;-66
2022/01/07 10:18:47;;;;;;;17.80;8.98;;;;;;;4.05;51.37;100348.41;5032426;28;20049;-68
2022/01/07 10:21:15;;;;;;;23.02;8.88;;;;;;;4.14;51.31;100345.41;5027632;28;20045;-65
2022/01/07 10:23:44;;;;;;;20.52;9.75;;;;;;;4.25;50.86;100339.72;5025675;28;20141;-70
2022/01/07 10:26:16;;;;;;;19.30;7.22;;;;;;;4.43;50.62;100337.16;5025326;28;20053;-66
2022/01/07 10:28:47;;;;;;;15.88;7.47;;;;;;;4.44;50.23;100338.88;5023599;28;20057;-65
2022/01/07 10:31:23;;;;;;;17.58;7.30;;;;;;;4.59;50.41;100338.16;5022940;28;20053;-71
2022/01/07 10:33:53;;;;;;;16.65;8.15;;;;;;;4.69;50.18;100343.81;5023080;28;20059;-67
2022/01/07 10:36:21;;;;;;;18.52;8.60;;;;;;;4.67;49.79;100341.28;5023264;28;20053;-67
2022/01/07 10:38:53;;;;;;;21.95;9.57;;;;;;;4.63;49.68;100333.63;5024990;28;20043;-69
2022/01/07 10:41:20;;;;;;;15.60;6.55;;;;;;;4.66;49.68;100323.88;5023411;28;20050;-68
2022/01/07 10:43:49;;;;;;;22.92;8.65;;;;;;;4.75;49.17;100327.81;5020393;28;20059;-67
2022/01/07 10:46:20;;;;;;;19.38;9.20;;;;;;;4.87;49.02;100322.00;5019559;28;20138;-66
2022/01/07 10:48:53;;;;;;;15.13;7.60;;;;;;;5.01;48.83;100320.53;5017487;28;20050;-69
2022/01/07 10:51:24;;;;;;;14.35;7.03;;;;;;;5.08;48.61;100319.28;5018397;28;20782;-67
2022/01/07 10:53:55;;;;;;;16.23;7.05;;;;;;;5.13;48.51;100299.81;5018057;28;20041;-68
2022/01/07 10:56:24;;;;;;;18.48;7.22;;;;;;;5.14;48.35;100304.13;5015518;28;20042;-64
2022/01/07 10:58:57;;;;;;;12.68;5.85;;;;;;;5.20;48.42;100309.97;5019332;28;20064;-66
2022/01/07 11:01:29;;;;;;;18.77;7.88;;;;;;;5.21;48.19;100311.69;5016079;28;20148;-69
2022/01/07 11:03:59;;;;;;;13.35;6.88;;;;;;;5.16;47.88;100311.91;5021689;28;20164;-66
2022/01/07 11:06:28;;;;;;;16.83;6.15;;;;;;;5.14;48.01;100319.81;5022465;28;20113;-67
2022/01/07 11:08:57;;;;;;;19.13;8.57;;;;;;;5.27;47.72;100317.44;5021534;28;20056;-68
2022/01/07 11:11:27;;;;;;;18.27;6.38;;;;;;;5.39;47.57;100320.41;5032921;28;20041;-71
2022/01/07 11:13:54;;;;;;;13.43;7.13;;;;;;;5.47;47.53;100313.84;5023666;28;20267;-65
2022/01/07 11:16:21;;;;;;;12.63;6.00;;;;;;;5.49;47.71;100317.25;5020333;28;20049;-65
2022/01/07 11:18:50;;;;;;;16.25;6.53;;;;;;;5.43;47.32;100312.31;5017808;28;20059;-69
2022/01/07 11:21:20;;;;;;;15.10;6.30;;;;;;;5.38;47.33;100302.97;5019698;28;20484;-66
2022/01/07 11:23:47;;;;;;;17.65;6.43;;;;;;;5.34;46.78;100305.75;5014788;28;20566;-69
2022/01/07 11:26:16;;;;;;;13.45;6.80;;;;;;;5.25;47.13;100313.22;5018506;28;20060;-66
2022/01/07 11:28:59;;;;;;;13.98;7.38;;;;;;;5.27;46.98;100306.13;5020299;28;20072;-70